sensor_id;sensor_type;location;lat;lon;timestamp;pressure;altitude;pressure_sealevel;temperature;humidity
13011;BME280;6786;57.632;11.962;2023-05-21T00:00:39;102055.13;;;19.31;46.33
13011;BME280;6786;57.632;11.962;2023-05-21T00:03:09;102031.13;;;19.15;46.24
13011;BME280;6786;57.632;11.962;2023-05-21T00:05:42;102064.88;;;19.32;46.33
13011;BME280;6786;57.632;11.962;2023-05-21T00:08:13;102065.75;;;19.32;46.38
13011;BME280;6786;57.632;11.962;2023-05-21T00:10:41;102059.50;;;19.32;46.35
13011;BME280;6786;57.632;11.962;2023-05-21T00:13:09;102059.50;;;19.32;46.26
13011;BME280;6786;57.632;11.962;2023-05-21T00:15:37;102056.44;;;19.24;46.47
13011;BME280;6786;57.632;11.962;2023-05-21T00:18:06;102057.81;;;19.31;46.17
13011;BME280;6786;57.632;11.962;2023-05-21T00:20:35;102063.91;;;19.33;46.24
13011;BME280;6786;57.632;11.962;2023-05-21T00:23:04;102054.16;;;19.32;46.18
13011;BME280;6786;57.632;11.962;2023-05-21T00:25:32;102050.50;;;19.33;46.20
13011;BME280;6786;57.632;11.962;2023-05-21T00:28:00;102036.75;;;19.25;46.31
13011;BME280;6786;57.632;11.962;2023-05-21T00:30:28;102048.78;;;19.32;46.15
13011;BME280;6786;57.632;11.962;2023-05-21T00:32:56;102041.72;;;19.31;46.27
13011;BME280;6786;57.632;11.962;2023-05-21T00:35:28;101994.34;;;19.05;46.38
13011;BME280;6786;57.632;11.962;2023-05-21T00:37:58;102033.69;;;19.31;46.30
13011;BME280;6786;57.632;11.962;2023-05-21T00:40:26;102029.25;;;19.30;46.34
13011;BME280;6786;57.632;11.962;2023-05-21T00:42:54;102034.63;;;19.30;46.16
13011;BME280;6786;57.632;11.962;2023-05-21T00:45:23;102037.31;;;19.30;46.25
13011;BME280;6786;57.632;11.962;2023-05-21T00:47:51;102041.72;;;19.31;46.27
13011;BME280;6786;57.632;11.962;2023-05-21T00:50:21;102039.97;;;19.30;46.33
13011;BME280;6786;57.632;11.962;2023-05-21T00:52:50;102031.22;;;19.28;46.32
13011;BME280;6786;57.632;11.962;2023-05-21T00:55:20;102034.63;;;19.30;46.21
13011;BME280;6786;57.632;11.962;2023-05-21T00:57:48;102039.97;;;19.30;46.24
13011;BME280;6786;57.632;11.962;2023-05-21T01:00:17;102039.97;;;19.30;46.35
13011;BME280;6786;57.632;11.962;2023-05-21T01:02:46;102035.50;;;19.30;46.28
13011;BME280;6786;57.632;11.962;2023-05-21T01:05:15;102038.06;;;19.32;46.23
13011;BME280;6786;57.632;11.962;2023-05-21T01:07:44;102033.56;;;19.32;46.28
13011;BME280;6786;57.632;11.962;2023-05-21T01:10:12;102015.50;;;19.22;46.21
13011;BME280;6786;57.632;11.962;2023-05-21T01:12:43;102020.88;;;19.22;46.22
13011;BME280;6786;57.632;11.962;2023-05-21T01:15:12;102038.06;;;19.32;46.27
13011;BME280;6786;57.632;11.962;2023-05-21T01:17:41;102032.72;;;19.32;46.22
13011;BME280;6786;57.632;11.962;2023-05-21T01:20:12;102036.38;;;19.31;46.28
13011;BME280;6786;57.632;11.962;2023-05-21T01:22:51;102031.59;;;19.22;46.30
13011;BME280;6786;57.632;11.962;2023-05-21T01:25:22;102047.09;;;19.31;46.26
13011;BME280;6786;57.632;11.962;2023-05-21T01:27:51;102048.78;;;19.32;46.20
13011;BME280;6786;57.632;11.962;2023-05-21T01:30:20;102040.84;;;19.30;46.16
13011;BME280;6786;57.632;11.962;2023-05-21T01:32:55;102055.03;;;19.32;46.46
13011;BME280;6786;57.632;11.962;2023-05-21T01:35:29;102048.78;;;19.32;46.15
13011;BME280;6786;57.632;11.962;2023-05-21T01:38:04;102047.91;;;19.31;46.26
13011;BME280;6786;57.632;11.962;2023-05-21T01:40:40;102039.97;;;19.30;46.19
13011;BME280;6786;57.632;11.962;2023-05-21T01:43:14;102045.13;;;19.33;46.16
13011;BME280;6786;57.632;11.962;2023-05-21T01:45:44;102045.34;;;19.30;46.29
13011;BME280;6786;57.632;11.962;2023-05-21T01:48:13;102038.06;;;19.32;46.19
13011;BME280;6786;57.632;11.962;2023-05-21T01:50:44;101994.34;;;19.05;46.20
13011;BME280;6786;57.632;11.962;2023-05-21T01:53:15;102029.47;;;19.27;46.24
13011;BME280;6786;57.632;11.962;2023-05-21T01:55:43;102024.50;;;19.21;46.25
13011;BME280;6786;57.632;11.962;2023-05-21T01:58:11;102026.22;;;19.22;46.33
13011;BME280;6786;57.632;11.962;2023-05-21T02:00:41;101971.69;;;18.84;46.32
13011;BME280;6786;57.632;11.962;2023-05-21T02:03:12;102049.75;;;19.31;46.30
13011;BME280;6786;57.632;11.962;2023-05-21T02:05:40;102043.44;;;19.32;46.29
13011;BME280;6786;57.632;11.962;2023-05-21T02:08:08;102037.19;;;19.31;46.28
13011;BME280;6786;57.632;11.962;2023-05-21T02:10:38;102036.56;;;19.28;46.30
13011;BME280;6786;57.632;11.962;2023-05-21T02:13:06;102041.72;;;19.31;46.28
13011;BME280;6786;57.632;11.962;2023-05-21T02:15:35;102041.72;;;19.31;46.28
13011;BME280;6786;57.632;11.962;2023-05-21T02:18:03;102047.09;;;19.31;46.13
13011;BME280;6786;57.632;11.962;2023-05-21T02:20:31;101976.41;;;18.93;46.18
13011;BME280;6786;57.632;11.962;2023-05-21T02:22:59;102004.84;;;19.08;46.12
13011;BME280;6786;57.632;11.962;2023-05-21T02:25:28;102039.03;;;19.31;46.20
13011;BME280;6786;57.632;11.962;2023-05-21T02:27:57;101933.72;;;18.65;46.22
13011;BME280;6786;57.632;11.962;2023-05-21T02:30:26;102043.44;;;19.32;46.21
13011;BME280;6786;57.632;11.962;2023-05-21T02:32:54;102035.50;;;19.30;46.19
13011;BME280;6786;57.632;11.962;2023-05-21T02:35:26;102040.75;;;19.32;46.18
13011;BME280;6786;57.632;11.962;2023-05-21T02:37:54;102031.94;;;19.30;46.21
13011;BME280;6786;57.632;11.962;2023-05-21T02:40:25;102000.25;;;19.10;46.25
13011;BME280;6786;57.632;11.962;2023-05-21T02:42:53;102032.72;;;19.32;46.11
13011;BME280;6786;57.632;11.962;2023-05-21T02:45:23;101991.47;;;19.08;46.08
13011;BME280;6786;57.632;11.962;2023-05-21T02:47:51;102042.44;;;19.33;46.30
13011;BME280;6786;57.632;11.962;2023-05-21T02:50:20;102032.72;;;19.32;46.18
13011;BME280;6786;57.632;11.962;2023-05-21T02:52:49;101976.22;;;18.96;46.15
13011;BME280;6786;57.632;11.962;2023-05-21T02:55:19;102034.63;;;19.30;46.25
13011;BME280;6786;57.632;11.962;2023-05-21T02:57:49;102023.75;;;19.19;46.10
13011;BME280;6786;57.632;11.962;2023-05-21T03:00:17;102023.75;;;19.19;46.20
13011;BME280;6786;57.632;11.962;2023-05-21T03:02:47;102039.97;;;19.30;46.42
13011;BME280;6786;57.632;11.962;2023-05-21T03:05:15;102036.38;;;19.31;46.27
13011;BME280;6786;57.632;11.962;2023-05-21T03:07:43;102035.59;;;19.29;46.27
13011;BME280;6786;57.632;11.962;2023-05-21T03:10:11;102034.63;;;19.30;46.36
13011;BME280;6786;57.632;11.962;2023-05-21T03:12:39;102038.28;;;19.29;46.23
13011;BME280;6786;57.632;11.962;2023-05-21T03:15:08;102007.88;;;19.16;46.32
13011;BME280;6786;57.632;11.962;2023-05-21T03:17:37;102034.63;;;19.30;46.15
13011;BME280;6786;57.632;11.962;2023-05-21T03:20:08;102023.91;;;19.30;46.21
13011;BME280;6786;57.632;11.962;2023-05-21T03:22:42;102026.47;;;19.31;46.16
13011;BME280;6786;57.632;11.962;2023-05-21T03:25:10;102028.31;;;19.31;46.20
13011;BME280;6786;57.632;11.962;2023-05-21T03:27:39;102025.84;;;19.28;46.20
13011;BME280;6786;57.632;11.962;2023-05-21T03:30:08;102030.22;;;19.29;46.23
13011;BME280;6786;57.632;11.962;2023-05-21T03:32:36;102028.31;;;19.31;46.17
13011;BME280;6786;57.632;11.962;2023-05-21T03:35:08;102031.00;;;19.31;46.18
13011;BME280;6786;57.632;11.962;2023-05-21T03:37:37;102029.25;;;19.30;46.21
13011;BME280;6786;57.632;11.962;2023-05-21T03:40:08;102030.13;;;19.30;46.18
13011;BME280;6786;57.632;11.962;2023-05-21T03:42:36;101981.16;;;19.02;46.11
13011;BME280;6786;57.632;11.962;2023-05-21T03:45:05;102028.31;;;19.31;46.12
13011;BME280;6786;57.632;11.962;2023-05-21T03:47:33;102032.72;;;19.32;46.14
13011;BME280;6786;57.632;11.962;2023-05-21T03:50:02;102031.84;;;19.31;46.12
13011;BME280;6786;57.632;11.962;2023-05-21T03:52:33;102022.19;;;19.29;46.08
13011;BME280;6786;57.632;11.962;2023-05-21T03:55:01;102032.72;;;19.32;46.07
13011;BME280;6786;57.632;11.962;2023-05-21T03:57:29;102035.38;;;19.32;46.05
13011;BME280;6786;57.632;11.962;2023-05-21T03:59:57;102031.00;;;19.31;46.14
13011;BME280;6786;57.632;11.962;2023-05-21T04:02:26;102027.72;;;19.26;46.09
13011;BME280;6786;57.632;11.962;2023-05-21T04:04:54;102036.38;;;19.31;46.12
13011;BME280;6786;57.632;11.962;2023-05-21T04:07:22;102017.91;;;19.26;46.03
13011;BME280;6786;57.632;11.962;2023-05-21T04:09:52;102031.94;;;19.30;46.00
13011;BME280;6786;57.632;11.962;2023-05-21T04:12:20;102001.25;;;19.09;46.32
13011;BME280;6786;57.632;11.962;2023-05-21T04:14:48;102031.84;;;19.31;46.01
13011;BME280;6786;57.632;11.962;2023-05-21T04:17:17;102027.56;;;19.29;46.21
13011;BME280;6786;57.632;11.962;2023-05-21T04:19:47;102034.63;;;19.30;46.00
13011;BME280;6786;57.632;11.962;2023-05-21T04:22:15;102034.63;;;19.30;46.08
13011;BME280;6786;57.632;11.962;2023-05-21T04:24:43;101986.72;;;18.99;45.99
13011;BME280;6786;57.632;11.962;2023-05-21T04:27:13;102033.69;;;19.31;45.95
13011;BME280;6786;57.632;11.962;2023-05-21T04:29:42;101924.75;;;18.66;45.94
13011;BME280;6786;57.632;11.962;2023-05-21T04:32:10;102029.25;;;19.30;46.01
13011;BME280;6786;57.632;11.962;2023-05-21T04:34:40;102034.63;;;19.30;46.00
13011;BME280;6786;57.632;11.962;2023-05-21T04:37:10;102021.50;;;19.25;45.93
13011;BME280;6786;57.632;11.962;2023-05-21T04:39:38;102029.47;;;19.27;45.90
13011;BME280;6786;57.632;11.962;2023-05-21T04:42:06;102034.63;;;19.30;45.93
13011;BME280;6786;57.632;11.962;2023-05-21T04:44:38;102023.44;;;19.23;45.83
13011;BME280;6786;57.632;11.962;2023-05-21T04:47:07;102031.00;;;19.31;45.92
13011;BME280;6786;57.632;11.962;2023-05-21T04:49:36;102028.31;;;19.31;45.90
13011;BME280;6786;57.632;11.962;2023-05-21T04:52:04;101966.47;;;18.95;45.84
13011;BME280;6786;57.632;11.962;2023-05-21T04:54:32;102007.78;;;19.17;45.98
13011;BME280;6786;57.632;11.962;2023-05-21T04:57:02;102005.00;;;19.19;45.89
13011;BME280;6786;57.632;11.962;2023-05-21T04:59:30;102021.97;;;19.32;45.88
13011;BME280;6786;57.632;11.962;2023-05-21T05:02:00;102017.59;;;19.31;45.88
13011;BME280;6786;57.632;11.962;2023-05-21T05:04:28;101999.44;;;19.22;45.89
13011;BME280;6786;57.632;11.962;2023-05-21T05:06:56;101947.94;;;18.92;45.87
13011;BME280;6786;57.632;11.962;2023-05-21T05:09:25;102013.19;;;19.30;45.85
13011;BME280;6786;57.632;11.962;2023-05-21T05:11:53;102010.38;;;19.31;45.75
13011;BME280;6786;57.632;11.962;2023-05-21T05:14:21;101974.75;;;19.04;45.81
13011;BME280;6786;57.632;11.962;2023-05-21T05:16:50;101988.06;;;19.06;45.85
13011;BME280;6786;57.632;11.962;2023-05-21T05:19:19;101969.50;;;19.03;45.74
13011;BME280;6786;57.632;11.962;2023-05-21T05:21:47;102013.19;;;19.30;45.81
13011;BME280;6786;57.632;11.962;2023-05-21T05:24:16;102018.53;;;19.30;45.86
13011;BME280;6786;57.632;11.962;2023-05-21T05:26:44;102021.22;;;19.30;45.84
13011;BME280;6786;57.632;11.962;2023-05-21T05:29:12;102011.47;;;19.29;45.75
13011;BME280;6786;57.632;11.962;2023-05-21T05:31:40;102029.25;;;19.30;45.77
13011;BME280;6786;57.632;11.962;2023-05-21T05:34:09;102018.53;;;19.30;45.82
13011;BME280;6786;57.632;11.962;2023-05-21T05:36:38;102014.91;;;19.31;45.68
13011;BME280;6786;57.632;11.962;2023-05-21T05:39:06;102014.03;;;19.30;45.88
13011;BME280;6786;57.632;11.962;2023-05-21T05:41:34;102010.50;;;19.30;45.76
13011;BME280;6786;57.632;11.962;2023-05-21T05:44:03;102007.81;;;19.30;45.75
13011;BME280;6786;57.632;11.962;2023-05-21T05:46:31;102020.28;;;19.31;45.84
13011;BME280;6786;57.632;11.962;2023-05-21T05:48:59;101977.13;;;19.09;45.72
13011;BME280;6786;57.632;11.962;2023-05-21T05:51:27;101947.06;;;18.91;45.75
13011;BME280;6786;57.632;11.962;2023-05-21T05:53:57;102007.81;;;19.30;45.76
13011;BME280;6786;57.632;11.962;2023-05-21T05:56:25;101962.28;;;19.03;45.84
13011;BME280;6786;57.632;11.962;2023-05-21T05:58:54;102007.81;;;19.30;45.77
13011;BME280;6786;57.632;11.962;2023-05-21T06:01:22;102001.63;;;19.29;45.83
13011;BME280;6786;57.632;11.962;2023-05-21T06:03:51;102005.13;;;19.30;45.73
13011;BME280;6786;57.632;11.962;2023-05-21T06:06:20;102008.69;;;19.30;45.72
13011;BME280;6786;57.632;11.962;2023-05-21T06:08:48;101998.81;;;19.31;45.65
13011;BME280;6786;57.632;11.962;2023-05-21T06:11:17;101996.25;;;19.29;45.68
13011;BME280;6786;57.632;11.962;2023-05-21T06:13:46;101976.91;;;19.12;45.69
13011;BME280;6786;57.632;11.962;2023-05-21T06:16:14;101997.09;;;19.30;45.67
13011;BME280;6786;57.632;11.962;2023-05-21T06:18:42;101986.88;;;19.22;45.75
13011;BME280;6786;57.632;11.962;2023-05-21T06:21:11;101983.34;;;19.22;45.75
13011;BME280;6786;57.632;11.962;2023-05-21T06:23:39;102001.63;;;19.29;45.67
13011;BME280;6786;57.632;11.962;2023-05-21T06:26:07;102002.44;;;19.30;45.74
13011;BME280;6786;57.632;11.962;2023-05-21T06:28:37;101998.16;;;19.27;45.88
13011;BME280;6786;57.632;11.962;2023-05-21T06:31:05;101998.81;;;19.31;45.83
13011;BME280;6786;57.632;11.962;2023-05-21T06:33:33;102008.56;;;19.32;45.94
13011;BME280;6786;57.632;11.962;2023-05-21T06:36:02;102003.31;;;19.30;45.83
13011;BME280;6786;57.632;11.962;2023-05-21T06:38:30;102010.50;;;19.30;45.66
13011;BME280;6786;57.632;11.962;2023-05-21T06:40:59;102005.91;;;19.32;45.71
13011;BME280;6786;57.632;11.962;2023-05-21T06:43:28;101939.13;;;18.90;45.73
13011;BME280;6786;57.632;11.962;2023-05-21T06:45:58;102005.91;;;19.32;45.68
13011;BME280;6786;57.632;11.962;2023-05-21T06:48:27;101944.06;;;18.96;45.68
13011;BME280;6786;57.632;11.962;2023-05-21T06:50:55;102007.59;;;19.33;45.70
13011;BME280;6786;57.632;11.962;2023-05-21T06:53:23;102007.59;;;19.33;45.69
13011;BME280;6786;57.632;11.962;2023-05-21T06:55:51;102007.59;;;19.33;45.69
13011;BME280;6786;57.632;11.962;2023-05-21T06:58:20;102003.22;;;19.32;45.70
13011;BME280;6786;57.632;11.962;2023-05-21T07:00:48;102011.25;;;19.32;45.75
13011;BME280;6786;57.632;11.962;2023-05-21T07:03:18;101934.63;;;18.90;45.68
13011;BME280;6786;57.632;11.962;2023-05-21T07:05:46;102007.59;;;19.33;45.72
13011;BME280;6786;57.632;11.962;2023-05-21T07:08:14;102011.25;;;19.32;45.79
13011;BME280;6786;57.632;11.962;2023-05-21T07:10:43;102012.03;;;19.34;45.70
13011;BME280;6786;57.632;11.962;2023-05-21T07:13:12;102002.25;;;19.33;45.72
13011;BME280;6786;57.632;11.962;2023-05-21T07:15:40;102006.78;;;19.32;45.56
13011;BME280;6786;57.632;11.962;2023-05-21T07:18:08;102002.25;;;19.33;45.64
13011;BME280;6786;57.632;11.962;2023-05-21T07:20:38;102005.91;;;19.32;45.64
13011;BME280;6786;57.632;11.962;2023-05-21T07:23:07;102012.97;;;19.33;45.66
13011;BME280;6786;57.632;11.962;2023-05-21T07:25:35;102012.97;;;19.33;45.76
13011;BME280;6786;57.632;11.962;2023-05-21T07:28:03;102013.84;;;19.33;45.62
13011;BME280;6786;57.632;11.962;2023-05-21T07:30:32;101943.34;;;18.94;45.64
13011;BME280;6786;57.632;11.962;2023-05-21T07:33:00;102012.97;;;19.33;45.76
13011;BME280;6786;57.632;11.962;2023-05-21T07:35:29;102000.75;;;19.29;45.65
13011;BME280;6786;57.632;11.962;2023-05-21T07:37:58;101998.63;;;19.34;45.65
13011;BME280;6786;57.632;11.962;2023-05-21T07:40:26;102002.25;;;19.33;45.72
13011;BME280;6786;57.632;11.962;2023-05-21T07:42:54;101995.16;;;19.32;45.67
13011;BME280;6786;57.632;11.962;2023-05-21T07:45:23;101991.72;;;19.30;45.63
13011;BME280;6786;57.632;11.962;2023-05-21T07:47:51;102001.31;;;19.34;45.67
13011;BME280;6786;57.632;11.962;2023-05-21T07:50:20;101993.25;;;19.34;45.77
13011;BME280;6786;57.632;11.962;2023-05-21T07:52:48;102002.25;;;19.33;45.59
13011;BME280;6786;57.632;11.962;2023-05-21T07:55:18;101998.63;;;19.34;45.60
13011;BME280;6786;57.632;11.962;2023-05-21T07:57:46;101993.25;;;19.34;45.57
13011;BME280;6786;57.632;11.962;2023-05-21T08:00:15;101959.09;;;19.11;45.56
13011;BME280;6786;57.632;11.962;2023-05-21T08:02:43;101988.84;;;19.33;45.63
13011;BME280;6786;57.632;11.962;2023-05-21T08:05:12;101996.03;;;19.32;45.67
13011;BME280;6786;57.632;11.962;2023-05-21T08:07:42;101991.50;;;19.33;45.63
13011;BME280;6786;57.632;11.962;2023-05-21T08:10:10;101991.50;;;19.33;45.59
13011;BME280;6786;57.632;11.962;2023-05-21T08:12:40;101986.16;;;19.33;45.70
13011;BME280;6786;57.632;11.962;2023-05-21T08:15:08;101990.69;;;19.32;45.54
13011;BME280;6786;57.632;11.962;2023-05-21T08:17:36;101987.13;;;19.32;45.49
13011;BME280;6786;57.632;11.962;2023-05-21T08:20:06;101991.50;;;19.33;45.64
13011;BME280;6786;57.632;11.962;2023-05-21T08:22:34;101952.56;;;19.15;45.56
13011;BME280;6786;57.632;11.962;2023-05-21T08:25:03;101984.44;;;19.32;45.59
13011;BME280;6786;57.632;11.962;2023-05-21T08:27:31;101979.97;;;19.32;45.63
13011;BME280;6786;57.632;11.962;2023-05-21T08:30:01;101984.34;;;19.33;45.54
13011;BME280;6786;57.632;11.962;2023-05-21T08:32:29;101979.09;;;19.32;45.56
13011;BME280;6786;57.632;11.962;2023-05-21T08:34:58;101984.34;;;19.33;45.55
13011;BME280;6786;57.632;11.962;2023-05-21T08:37:26;101978.97;;;19.33;45.58
13011;BME280;6786;57.632;11.962;2023-05-21T08:39:54;101942.28;;;19.09;45.63
13011;BME280;6786;57.632;11.962;2023-05-21T08:42:29;101955.00;;;19.18;45.46
13011;BME280;6786;57.632;11.962;2023-05-21T08:45:06;101980.78;;;19.33;45.58
13011;BME280;6786;57.632;11.962;2023-05-21T08:47:35;101987.91;;;19.34;45.44
13011;BME280;6786;57.632;11.962;2023-05-21T08:50:04;101986.16;;;19.33;45.38
13011;BME280;6786;57.632;11.962;2023-05-21T08:52:35;101987.03;;;19.33;45.58
13011;BME280;6786;57.632;11.962;2023-05-21T08:55:04;101982.53;;;19.34;45.50
13011;BME280;6786;57.632;11.962;2023-05-21T08:57:33;101977.16;;;19.34;45.54
13011;BME280;6786;57.632;11.962;2023-05-21T09:00:02;101965.69;;;19.32;45.55
13011;BME280;6786;57.632;11.962;2023-05-21T09:02:34;101904.84;;;18.95;45.40
13011;BME280;6786;57.632;11.962;2023-05-21T09:05:08;101965.47;;;19.35;45.43
13011;BME280;6786;57.632;11.962;2023-05-21T09:07:41;101955.78;;;19.20;45.69
13011;BME280;6786;57.632;11.962;2023-05-21T09:10:12;101908.50;;;18.94;45.53
13011;BME280;6786;57.632;11.962;2023-05-21T09:12:41;101977.16;;;19.34;45.52
13011;BME280;6786;57.632;11.962;2023-05-21T09:15:09;101965.47;;;19.35;45.54
13011;BME280;6786;57.632;11.962;2023-05-21T09:17:39;101968.16;;;19.35;45.62
13011;BME280;6786;57.632;11.962;2023-05-21T09:20:09;101956.56;;;19.34;45.52
13011;BME280;6786;57.632;11.962;2023-05-21T09:22:42;101966.44;;;19.34;45.55
13011;BME280;6786;57.632;11.962;2023-05-21T09:25:11;101971.81;;;19.34;45.60
13011;BME280;6786;57.632;11.962;2023-05-21T09:27:40;101945.59;;;19.25;45.53
13011;BME280;6786;57.632;11.962;2023-05-21T09:30:10;101944.94;;;19.21;45.57
13011;BME280;6786;57.632;11.962;2023-05-21T09:32:40;101913.03;;;19.06;45.61
13011;BME280;6786;57.632;11.962;2023-05-21T09:35:10;101952.06;;;19.35;45.65
13011;BME280;6786;57.632;11.962;2023-05-21T09:37:39;101945.00;;;19.34;45.59
13011;BME280;6786;57.632;11.962;2023-05-21T09:40:14;101948.63;;;19.33;45.65
13011;BME280;6786;57.632;11.962;2023-05-21T09:42:45;101913.44;;;19.12;45.69
13011;BME280;6786;57.632;11.962;2023-05-21T09:45:17;101949.91;;;19.27;45.55
13011;BME280;6786;57.632;11.962;2023-05-21T09:47:48;101940.47;;;19.34;45.59
13011;BME280;6786;57.632;11.962;2023-05-21T09:50:18;101945.00;;;19.34;45.63
13011;BME280;6786;57.632;11.962;2023-05-21T09:52:47;101944.03;;;19.35;45.55
13011;BME280;6786;57.632;11.962;2023-05-21T09:55:16;101939.63;;;19.34;45.52
13011;BME280;6786;57.632;11.962;2023-05-21T09:57:45;101935.97;;;19.35;45.66
13011;BME280;6786;57.632;11.962;2023-05-21T10:00:18;101934.28;;;19.34;45.64
13011;BME280;6786;57.632;11.962;2023-05-21T10:02:49;101938.66;;;19.35;45.69
13011;BME280;6786;57.632;11.962;2023-05-21T10:05:25;101927.94;;;19.35;45.74
13011;BME280;6786;57.632;11.962;2023-05-21T10:07:58;101930.63;;;19.35;45.62
13011;BME280;6786;57.632;11.962;2023-05-21T10:10:28;101925.25;;;19.35;45.69
13011;BME280;6786;57.632;11.962;2023-05-21T10:13:00;101923.56;;;19.34;45.73
13011;BME280;6786;57.632;11.962;2023-05-21T10:15:37;101914.97;;;19.29;45.68
13011;BME280;6786;57.632;11.962;2023-05-21T10:18:12;101927.19;;;19.33;45.71
13011;BME280;6786;57.632;11.962;2023-05-21T10:20:40;101918.19;;;19.34;45.70
13011;BME280;6786;57.632;11.962;2023-05-21T10:23:09;101914.75;;;19.32;45.68
13011;BME280;6786;57.632;11.962;2023-05-21T10:25:38;101916.47;;;19.33;45.83
13011;BME280;6786;57.632;11.962;2023-05-21T10:28:08;101899.75;;;19.29;45.73
13011;BME280;6786;57.632;11.962;2023-05-21T10:30:36;101911.97;;;19.33;45.68
13011;BME280;6786;57.632;11.962;2023-05-21T10:33:06;101912.84;;;19.34;45.71
13011;BME280;6786;57.632;11.962;2023-05-21T10:35:37;101886.63;;;19.25;45.69
13011;BME280;6786;57.632;11.962;2023-05-21T10:38:08;101895.88;;;19.33;45.69
13011;BME280;6786;57.632;11.962;2023-05-21T10:40:36;101895.88;;;19.33;45.78
13011;BME280;6786;57.632;11.962;2023-05-21T10:43:22;101907.47;;;19.34;45.81
13011;BME280;6786;57.632;11.962;2023-05-21T10:46:10;101896.75;;;19.34;45.87
13011;BME280;6786;57.632;11.962;2023-05-21T10:51:44;101889.66;;;19.33;45.80
13011;BME280;6786;57.632;11.962;2023-05-21T10:54:47;101896.75;;;19.34;45.88
13011;BME280;6786;57.632;11.962;2023-05-21T10:57:45;101888.81;;;19.32;45.86
13011;BME280;6786;57.632;11.962;2023-05-21T11:00:19;101882.59;;;19.32;45.89
13011;BME280;6786;57.632;11.962;2023-05-21T11:02:48;101859.66;;;19.28;45.93
13011;BME280;6786;57.632;11.962;2023-05-21T11:05:37;101871.41;;;19.25;45.86
13011;BME280;6786;57.632;11.962;2023-05-21T11:08:18;101878.94;;;19.33;45.95
13011;BME280;6786;57.632;11.962;2023-05-21T11:10:51;101879.34;;;19.27;45.83
13011;BME280;6786;57.632;11.962;2023-05-21T11:13:20;101877.63;;;19.26;45.78
13011;BME280;6786;57.632;11.962;2023-05-21T11:16:05;101875.31;;;19.34;45.95
13011;BME280;6786;57.632;11.962;2023-05-21T11:19:00;101875.31;;;19.34;46.10
13011;BME280;6786;57.632;11.962;2023-05-21T11:21:30;101875.31;;;19.34;45.83
13011;BME280;6786;57.632;11.962;2023-05-21T11:24:04;101876.25;;;19.33;45.93
13011;BME280;6786;57.632;11.962;2023-05-21T11:26:58;101871.84;;;19.32;46.16
13011;BME280;6786;57.632;11.962;2023-05-21T11:29:44;101888.81;;;19.32;46.17
13011;BME280;6786;57.632;11.962;2023-05-21T11:32:13;101869.28;;;19.30;45.97
13011;BME280;6786;57.632;11.962;2023-05-21T11:34:43;101876.47;;;19.30;45.91
13011;BME280;6786;57.632;11.962;2023-05-21T11:37:33;101873.56;;;19.33;46.16
13011;BME280;6786;57.632;11.962;2023-05-21T11:40:21;101868.19;;;19.33;46.11
13011;BME280;6786;57.632;11.962;2023-05-21T11:42:53;101868.19;;;19.33;46.08
13011;BME280;6786;57.632;11.962;2023-05-21T11:45:22;101862.84;;;19.33;46.07
13011;BME280;6786;57.632;11.962;2023-05-21T11:47:52;101862.84;;;19.33;46.06
13011;BME280;6786;57.632;11.962;2023-05-21T11:50:21;101868.19;;;19.33;45.95
13011;BME280;6786;57.632;11.962;2023-05-21T11:52:50;101864.56;;;19.34;46.01
13011;BME280;6786;57.632;11.962;2023-05-21T11:55:23;101852.75;;;19.24;45.91
13011;BME280;6786;57.632;11.962;2023-05-21T11:57:52;101863.72;;;19.33;46.10
13011;BME280;6786;57.632;11.962;2023-05-21T12:00:21;101859.22;;;19.34;46.06
13011;BME280;6786;57.632;11.962;2023-05-21T12:02:51;101859.22;;;19.34;46.14
13011;BME280;6786;57.632;11.962;2023-05-21T12:05:23;101853.84;;;19.34;46.10
13011;BME280;6786;57.632;11.962;2023-05-21T12:07:52;101858.25;;;19.35;46.24
13011;BME280;6786;57.632;11.962;2023-05-21T12:10:25;101860.91;;;19.35;46.16
13011;BME280;6786;57.632;11.962;2023-05-21T12:12:54;101859.22;;;19.34;46.11
13011;BME280;6786;57.632;11.962;2023-05-21T12:15:25;101836.38;;;19.16;46.09
13011;BME280;6786;57.632;11.962;2023-05-21T12:17:54;101859.22;;;19.34;46.20
13011;BME280;6786;57.632;11.962;2023-05-21T12:20:25;101854.06;;;19.31;46.24
13011;BME280;6786;57.632;11.962;2023-05-21T12:22:56;101855.56;;;19.35;46.16
13011;BME280;6786;57.632;11.962;2023-05-21T12:25:26;101852.00;;;19.34;46.19
13011;BME280;6786;57.632;11.962;2023-05-21T12:27:55;101832.94;;;19.26;46.19
13011;BME280;6786;57.632;11.962;2023-05-21T12:30:24;101832.63;;;19.31;46.25
13011;BME280;6786;57.632;11.962;2023-05-21T12:32:56;101835.81;;;19.36;46.24
13011;BME280;6786;57.632;11.962;2023-05-21T12:35:25;101835.09;;;19.34;46.24
13011;BME280;6786;57.632;11.962;2023-05-21T12:37:53;101840.34;;;19.35;46.28
13011;BME280;6786;57.632;11.962;2023-05-21T12:40:35;101839.47;;;19.35;46.39
13011;BME280;6786;57.632;11.962;2023-05-21T12:43:05;101842.25;;;19.33;46.15
13011;BME280;6786;57.632;11.962;2023-05-21T12:45:34;101848.28;;;19.37;46.17
13011;BME280;6786;57.632;11.962;2023-05-21T12:48:05;101849.97;;;19.38;46.22
13011;BME280;6786;57.632;11.962;2023-05-21T12:50:37;101852.66;;;19.38;46.27
13011;BME280;6786;57.632;11.962;2023-05-21T12:53:08;101805.16;;;19.15;46.13
13011;BME280;6786;57.632;11.962;2023-05-21T12:55:39;101842.91;;;19.37;46.26
13011;BME280;6786;57.632;11.962;2023-05-21T12:58:07;101836.69;;;19.36;46.30
13011;BME280;6786;57.632;11.962;2023-05-21T13:00:35;101832.19;;;19.37;46.37
13011;BME280;6786;57.632;11.962;2023-05-21T13:03:04;101838.50;;;19.36;46.30
13011;BME280;6786;57.632;11.962;2023-05-21T13:05:33;101835.81;;;19.36;46.32
13011;BME280;6786;57.632;11.962;2023-05-21T13:08:01;101840.22;;;19.37;46.24